• Join FlightAware (Why Join?)
  • Login
  • US Flag 
05:40PM EDT


 

Airport Tracker/Info


-or-


 

Live Flight TrackerFlight Track Log ✈ EGF4090 ✈ 30-Apr-2013 ✈ KORD - KLIT

Flight Track Log - Related Links

Times and Time Zones

All times are in EDT time to prevent confusion due to time zone crossing. See the EGF4090 flight status page for this flight to view local times or setup timezone preferences in your user account.

Time Position Orientation Groundspeed Altitude Reporting Facility
EDT Latitude Longitude Course Direction KTS MPH feet Rate Location/Type
11:40PM 41.9667 -87.8833 194° South 161 185 1,700  Level Chicago TRACON
11:41PM 41.9333 -87.8833 180° South 183 211 3,600 1,920 Climbing Chicago TRACON
11:42PM 41.7066 -88.0894 192° South  Level Estimated
11:43PM 41.6148 -88.1500 189° South  Level Estimated
11:43PM 41.8206 -87.8872 181° South 240 276 7,000  Level Chicago Center
11:44PM 41.5235 -88.0884 153° Southeast  Level FlightAware Approximate
11:44PM 41.7547 -87.9139 197° South 248 285 9,300  Level Chicago Center
11:45PM 41.4323 -88.1501 194° South  Level Estimated
11:45PM 41.6819 -87.9381 194° South 268 308 11,200  Level Chicago Center
11:46PM 41.5897 -87.9906 203° Southwest 307 353 12,700 1,200 Climbing Chicago Center
11:47PM 41.5086 -88.0483 208° Southwest 330 380 13,700 1,080 Climbing Chicago Center
11:48PM 41.4253 -88.1086 208° Southwest 354 407 14,900 1,260 Climbing Chicago Center
11:49PM 41.3383 -88.1647 206° Southwest 360 414 16,300 1,500 Climbing Chicago Center
11:51PM 41.1743 -88.2688 209° Southwest  Level FlightAware Approximate
11:55PM 40.7786 -88.5431 205° Southwest 372 428 25,600  Level Chicago Center
11:56PM 40.6869 -88.6042 207° Southwest 372 428 27,100 1,440 Climbing Chicago Center
11:57PM 40.5969 -88.6644 207° Southwest 366 421 28,600 1,440 Climbing Chicago Center
11:58PM 40.5586 -88.6897 205° Southwest  Level FlightAware Approximate
11:58PM 40.5067 -88.7236 206° Southwest 364 419 30,100  Level Chicago Center
11:59PM 40.4688 -88.7449 205° Southwest  Level FlightAware Approximate
11:59PM 40.4239 -88.7781 207° Southwest 359 413 31,600  Level Chicago Center
12:00AM 40.3788 -88.7994 205° Southwest  Level FlightAware Approximate
12:00AM 40.3342 -88.8367 206° Southwest 358 412 33,000  Level Chicago Center
12:01AM 40.2436 -88.8964 207° Southwest 364 419 33,900 480 Climbing Chicago Center
12:02AM 40.1489 -88.9594 207° Southwest 380 437 34,000  Climbing Chicago Center
12:03AM 40.0442 -89.0261 206° Southwest 413 475 34,000  Level Chicago Center
12:04AM 39.9356 -89.0978 207° Southwest 433 498 34,000  Level Chicago Center
12:05AM 39.8231 -89.1703 206° Southwest 445 512 34,000  Level Chicago Center
12:06AM 39.7119 -89.2433 207° Southwest 445 512 34,000  Level Chicago Center
12:07AM 39.6019 -89.3128 206° Southwest 441 507 34,000  Level Chicago Center
12:08AM 39.4903 -89.3836 206° Southwest 442 509 34,000  Level Chicago Center
12:09AM 39.3775 -89.4550 206° Southwest 448 516 34,000  Level Chicago Center
12:10AM 39.2378 -89.5439 206° Southwest 447 514 34,000  Level Kansas City Center
12:11AM 39.1267 -89.6181 207° Southwest 445 512 34,000  Level Kansas City Center
12:12AM 39.0150 -89.6883 206° Southwest 446 513 34,000  Level Kansas City Center
12:13AM 38.9047 -89.7569 206° Southwest 445 512 34,000  Level Kansas City Center
12:14AM 38.7925 -89.8267 206° Southwest 447 514 34,000  Level Kansas City Center
12:15AM 38.6806 -89.8964 206° Southwest 444 511 34,000  Level Kansas City Center
12:16AM 38.5686 -89.9647 206° Southwest 443 510 34,000  Level Kansas City Center
12:17AM 38.4567 -90.0347 206° Southwest 444 511 34,000  Level Kansas City Center
12:18AM 38.3353 -90.1111 206° Southwest 444 511 34,000  Level Kansas City Center
12:19AM 38.2250 -90.1789 206° Southwest 443 510 34,000  Level Kansas City Center
12:20AM 38.1142 -90.2464 206° Southwest 442 509 34,000  Level Kansas City Center
12:21AM 37.9947 -90.3186 205° Southwest 443 510 34,000  Level Kansas City Center
12:22AM 37.8847 -90.3867 206° Southwest 441 507 34,000  Level Kansas City Center
12:23AM 37.7878 -90.4450 205° Southwest 444 511 34,000  Level Kansas City Center
12:24AM 37.6778 -90.5136 206° Southwest 443 510 34,000  Level Kansas City Center
12:25AM 37.5667 -90.5833 206° Southwest 444 511 34,000  Level Kansas City Center
12:27AM 37.4395 -90.6563 205° Southwest  Level FlightAware Approximate
12:29AM 37.1272 -90.8450 205° Southwest 422 486 34,000  Level Kansas City Center
12:30AM 37.0225 -90.9103 206° Southwest 422 486 34,000  Level Memphis Center
12:31AM 36.9181 -90.9719 205° Southwest 428 493 34,000  Level Memphis Center
12:32AM 36.8133 -91.0333 205° Southwest 423 487 34,000  Level Memphis Center
12:33AM 36.7047 -91.0944 204° Southwest 423 487 34,000  Level Memphis Center
12:34AM 36.7898 -91.0325 205° Southwest  Level FlightAware Approximate
12:34AM 36.6128 -91.1531 207° Southwest 423 487 34,000  Level Memphis Center
12:35AM 36.6973 -91.0870 205° Southwest  Level FlightAware Approximate
12:35AM 36.5039 -91.2167 205° Southwest 428 493 34,000  Level Memphis Center
12:36AM 36.3867 -91.2825 204° Southwest 428 493 34,000  Level Memphis Center
12:37AM 36.2797 -91.3456 205° Southwest 428 493 34,000  Level Memphis Center
12:38AM 36.1708 -91.4086 205° Southwest 428 493 34,000  Level Memphis Center
12:39AM 36.0600 -91.4661 203° Southwest 428 493 34,000 -1,260 Level Memphis Center
12:40AM 35.9592 -91.5289 207° Southwest 422 486 31,500 -2,820 Descending Memphis Center
12:41AM 35.8650 -91.5839 205° Southwest 415 478 28,400 1,200 Descending Memphis Center
12:42AM 35.7600 -91.6439 205° Southwest 415 478 34,000 -3,480 Climbing Memphis Center
12:43AM 35.6572 -91.7036 205° Southwest 415 478 21,500 -8,040 Descending Memphis Center
12:44AM 35.5564 -91.7581 204° Southwest 410 472 18,000 -3,660 Descending Memphis Center
12:45AM 35.4536 -91.8175 205° Southwest 391 450 14,400 -3,480 Descending Memphis Center
12:46AM 35.3611 -91.8694 205° Southwest 377 434 11,500 -2,340 Descending Memphis Center
12:47AM 35.2731 -91.9111 201° Southwest 346 398 10,000 -780 Descending Memphis Center
12:48AM 35.1808 -91.9550 201° Southwest 334 384 10,000 -480 Level Memphis Center
12:49AM 35.1094 -91.9892 201° Southwest 273 314 9,100 -1,200 Descending Memphis Center
12:50AM 35.0358 -92.0208 199° South 259 298 7,700 -1,500 Descending Memphis Center
12:51AM 34.9625 -92.0522 199° South 262 302 6,100 -1,560 Descending Memphis Center
12:52AM 34.9017 -92.0814 201° Southwest 253 291 4,600 -1,260 Descending Memphis Center
12:53AM 34.8386 -92.1081 199° South 224 258 3,600 -1,200 Descending Memphis Center
12:54AM 34.7883 -92.1347 204° Southwest 194 223 2,300 -900 Descending Memphis Center
12:56AM 34.7225 -92.2042 221° Southwest 164 189 900 -720 Descending Memphis Center